createdAt,value
2023-02-11T00:01:25.850Z,3.41
2023-02-11T00:03:56.159Z,3.38
2023-02-11T00:06:25.262Z,3.36
2023-02-11T00:08:53.441Z,3.50
2023-02-11T00:11:25.477Z,3.50
2023-02-11T00:13:53.905Z,3.45
2023-02-11T00:16:22.685Z,3.37
2023-02-11T00:18:52.995Z,3.26
2023-02-11T00:21:25.510Z,3.36
2023-02-11T00:23:54.921Z,3.43
2023-02-11T00:26:25.501Z,3.36
2023-02-11T00:28:54.430Z,3.43
2023-02-11T00:31:24.966Z,3.41
2023-02-11T00:33:54.202Z,3.42
2023-02-11T00:36:26.527Z,3.40
2023-02-11T00:38:56.956Z,3.33
2023-02-11T00:41:26.048Z,3.33
2023-02-11T00:43:54.594Z,3.28
2023-02-11T00:46:23.782Z,3.29
2023-02-11T00:48:54.974Z,3.40
2023-02-11T00:51:24.457Z,3.44
2023-02-11T00:53:52.801Z,3.40
2023-02-11T00:56:21.477Z,3.37
2023-02-11T00:58:50.385Z,3.30
2023-02-11T01:01:18.737Z,3.34
2023-02-11T01:03:46.942Z,3.37
2023-02-11T01:06:15.225Z,3.36
2023-02-11T01:08:44.688Z,3.38
2023-02-11T01:11:16.669Z,3.34
2023-02-11T01:13:47.425Z,3.40
2023-02-11T01:16:18.113Z,3.39
2023-02-11T01:18:47.059Z,3.45
2023-02-11T01:21:16.239Z,3.40
2023-02-11T01:23:45.864Z,3.33
2023-02-11T01:26:14.130Z,3.21
2023-02-11T01:28:42.480Z,3.16
2023-02-11T01:31:10.743Z,3.16
2023-02-11T01:33:38.971Z,3.17
2023-02-11T01:36:08.779Z,3.25
2023-02-11T01:38:37.365Z,3.27
2023-02-11T01:41:11.167Z,3.30
2023-02-11T01:43:43.334Z,3.24
2023-02-11T01:46:27.128Z,3.21
2023-02-11T01:49:00.643Z,3.16
2023-02-11T01:51:34.881Z,3.20
2023-02-11T01:54:25.894Z,3.07
2023-02-11T01:57:16.987Z,3.08
2023-02-11T01:59:53.405Z,3.14
2023-02-11T02:02:27.509Z,3.18
2023-02-11T02:05:03.799Z,3.36
2023-02-11T02:07:38.733Z,3.18
2023-02-11T02:10:15.047Z,3.21
2023-02-11T02:12:44.512Z,3.11
2023-02-11T02:15:27.389Z,3.15
2023-02-11T02:18:28.870Z,3.22
2023-02-11T02:21:56.943Z,3.17
2023-02-11T02:25:03.793Z,3.14
2023-02-11T02:27:48.016Z,3.08
2023-02-11T02:30:57.785Z,3.22
2023-02-11T02:33:37.943Z,3.24
2023-02-11T02:36:15.395Z,3.23
2023-02-11T02:38:53.947Z,3.25
2023-02-11T02:41:28.224Z,3.17
2023-02-11T02:43:56.644Z,3.14
2023-02-11T02:46:28.308Z,3.19
2023-02-11T02:48:59.360Z,3.13
2023-02-11T02:52:05.335Z,3.11
2023-02-11T02:55:10.097Z,3.13
2023-02-11T02:58:04.490Z,3.20
2023-02-11T03:00:44.244Z,3.10
2023-02-11T03:03:24.521Z,3.13
2023-02-11T03:06:04.472Z,3.20
2023-02-11T03:08:39.029Z,3.12
2023-02-11T03:11:08.624Z,3.09
2023-02-11T03:13:40.306Z,3.05
2023-02-11T03:16:14.599Z,2.96
2023-02-11T03:18:49.282Z,2.92
2023-02-11T03:21:21.159Z,3.01
2023-02-11T03:23:55.160Z,3.03
2023-02-11T03:26:32.021Z,3.13
2023-02-11T03:29:09.751Z,3.12
2023-02-11T03:31:48.688Z,2.92
2023-02-11T03:34:22.595Z,2.99
2023-02-11T03:36:58.353Z,2.94
2023-02-11T03:39:32.668Z,2.61
2023-02-11T03:42:03.739Z,2.73
2023-02-11T03:44:44.909Z,3.00
2023-02-11T03:47:16.441Z,3.13
2023-02-11T03:49:46.086Z,3.04
2023-02-11T03:52:18.900Z,3.00
2023-02-11T03:54:49.924Z,2.90
2023-02-11T03:57:18.332Z,2.96
2023-02-11T03:59:55.190Z,3.06
2023-02-11T04:02:25.913Z,3.10
2023-02-11T04:04:54.102Z,3.08
2023-02-11T04:07:24.094Z,3.05
2023-02-11T04:09:52.923Z,3.04
2023-02-11T04:12:21.845Z,3.11
2023-02-11T04:14:49.919Z,3.15
2023-02-11T04:17:18.219Z,3.03
2023-02-11T04:19:46.358Z,3.22
2023-02-11T04:22:14.873Z,3.33
2023-02-11T04:24:44.960Z,3.40
2023-02-11T04:27:13.069Z,3.41
2023-02-11T04:29:41.158Z,3.34
2023-02-11T04:32:10.199Z,3.41
2023-02-11T04:34:38.526Z,3.41
2023-02-11T04:37:06.952Z,3.44
2023-02-11T04:39:35.174Z,3.47
2023-02-11T04:42:04.747Z,3.43
2023-02-11T04:44:33.259Z,3.45
2023-02-11T04:47:01.898Z,3.55
2023-02-11T04:49:30.356Z,3.70
2023-02-11T04:51:58.462Z,3.73
2023-02-11T04:54:26.533Z,3.61
2023-02-11T04:56:54.605Z,3.60
2023-02-11T04:59:24.056Z,3.77
2023-02-11T05:01:52.287Z,3.73
2023-02-11T05:04:20.585Z,3.78
2023-02-11T05:06:48.696Z,3.83
2023-02-11T05:09:16.951Z,3.80
2023-02-11T05:11:45.097Z,3.79
2023-02-11T05:14:14.284Z,3.81
2023-02-11T05:16:43.880Z,3.86
2023-02-11T05:19:12.008Z,3.82
2023-02-11T05:22:01.470Z,3.86
2023-02-11T05:24:30.680Z,3.85
2023-02-11T05:26:58.854Z,3.89
2023-02-11T05:29:27.140Z,3.99
2023-02-11T05:31:56.696Z,3.98
2023-02-11T05:34:24.775Z,4.02
2023-02-11T05:36:53.007Z,4.03
2023-02-11T05:39:21.231Z,4.09
2023-02-11T05:41:49.410Z,4.05
2023-02-11T05:44:17.508Z,4.16
2023-02-11T05:46:45.913Z,4.13
2023-02-11T05:49:15.358Z,4.18
2023-02-11T05:51:43.640Z,4.19
2023-02-11T05:54:11.905Z,4.20
2023-02-11T05:56:40.026Z,4.30
2023-02-11T05:59:08.142Z,4.43
2023-02-11T06:01:36.283Z,4.34
2023-02-11T06:04:04.555Z,4.26
2023-02-11T06:06:34.158Z,4.29
2023-02-11T06:09:02.491Z,4.35
2023-02-11T06:11:30.565Z,4.15
2023-02-11T06:13:58.688Z,4.23
2023-02-11T06:16:26.830Z,4.21
2023-02-11T06:18:55.010Z,4.34
2023-02-11T06:21:25.097Z,4.38
2023-02-11T06:23:58.645Z,4.46
2023-02-11T06:26:26.744Z,4.45
2023-02-11T06:28:54.847Z,4.43
2023-02-11T06:31:23.105Z,4.52
2023-02-11T06:33:51.926Z,4.55
2023-02-11T06:36:22.277Z,4.51
2023-02-11T06:38:51.539Z,4.46
2023-02-11T06:41:21.805Z,4.45
2023-02-11T06:43:51.701Z,4.24
2023-02-11T06:46:20.251Z,4.24
2023-02-11T06:48:48.359Z,4.50
2023-02-11T06:51:17.265Z,4.47
2023-02-11T06:53:47.601Z,4.46
2023-02-11T06:56:18.960Z,4.54
2023-02-11T06:58:48.916Z,4.49
2023-02-11T07:01:17.936Z,4.55
2023-02-11T07:03:46.987Z,4.49
2023-02-11T07:06:18.810Z,4.43
2023-02-11T07:08:48.821Z,4.53
2023-02-11T07:11:20.779Z,4.60
2023-02-11T07:13:50.235Z,4.65
2023-02-11T07:16:20.107Z,4.68
2023-02-11T07:18:50.305Z,4.65
2023-02-11T07:21:22.426Z,4.72
2023-02-11T07:23:51.076Z,4.70
2023-02-11T07:26:22.996Z,4.74
2023-02-11T07:28:53.780Z,4.88
2023-02-11T07:31:25.712Z,4.85
2023-02-11T07:33:56.241Z,4.87
2023-02-11T07:36:24.741Z,4.79
2023-02-11T07:38:52.957Z,4.89
2023-02-11T07:41:24.708Z,4.88
2023-02-11T07:43:54.454Z,4.90
2023-02-11T07:46:24.952Z,5.05
2023-02-11T07:48:53.685Z,5.09
2023-02-11T07:51:24.352Z,5.08
2023-02-11T07:53:53.474Z,5.10
2023-02-11T07:56:22.748Z,5.14
2023-02-11T07:58:51.504Z,5.08
2023-02-11T08:01:25.297Z,5.04
2023-02-11T08:03:54.277Z,5.15
2023-02-11T08:06:25.668Z,5.15
2023-02-11T08:08:54.254Z,5.25
2023-02-11T08:11:24.764Z,5.29
2023-02-11T08:13:54.007Z,5.27
2023-02-11T08:16:26.754Z,5.24
2023-02-11T08:18:58.433Z,5.33
2023-02-11T08:21:27.468Z,5.26
2023-02-11T08:23:56.312Z,5.24
2023-02-11T08:26:27.364Z,5.37
2023-02-11T08:28:57.411Z,5.45
2023-02-11T08:31:29.705Z,5.45
2023-02-11T08:33:58.864Z,5.47
2023-02-11T08:36:31.409Z,5.57
2023-02-11T08:39:17.418Z,5.59
2023-02-11T08:41:48.794Z,5.63
2023-02-11T08:44:17.853Z,5.71
2023-02-11T08:46:48.036Z,5.73
2023-02-11T08:49:16.602Z,5.71
2023-02-11T08:51:45.843Z,5.82
2023-02-11T08:54:14.675Z,6.05
2023-02-11T08:56:43.159Z,6.19
2023-02-11T08:59:17.729Z,6.36
2023-02-11T09:01:47.846Z,6.45
2023-02-11T09:04:16.484Z,6.55
2023-02-11T09:06:44.682Z,6.65
2023-02-11T09:09:15.200Z,6.78
2023-02-11T09:11:45.637Z,6.93
2023-02-11T09:14:21.257Z,7.05
2023-02-11T09:16:51.930Z,7.26
2023-02-11T09:19:21.364Z,7.39
2023-02-11T09:21:49.857Z,7.54
2023-02-11T09:24:18.478Z,7.64
2023-02-11T09:26:46.630Z,7.73
2023-02-11T09:29:14.739Z,7.85
2023-02-11T09:31:46.499Z,7.88
2023-02-11T09:34:16.656Z,7.95
2023-02-11T09:36:44.810Z,8.06
2023-02-11T09:39:17.017Z,8.10
2023-02-11T09:42:21.276Z,8.16
2023-02-11T09:44:50.090Z,8.35
2023-02-11T09:47:29.109Z,8.43
2023-02-11T09:50:04.260Z,8.58
2023-02-11T09:52:41.215Z,8.74
2023-02-11T09:55:22.041Z,8.84
2023-02-11T09:57:50.531Z,9.04
2023-02-11T10:00:24.539Z,9.15
2023-02-11T10:03:35.205Z,9.26
2023-02-11T10:06:34.327Z,9.39
2023-02-11T10:09:15.316Z,9.43
2023-02-11T10:11:57.394Z,9.53
2023-02-11T10:14:49.413Z,9.56
2023-02-11T10:17:27.762Z,9.60
2023-02-11T10:20:17.094Z,9.68
2023-02-11T10:22:50.410Z,9.62
2023-02-11T10:25:26.253Z,9.63
2023-02-11T10:27:58.983Z,9.74
2023-02-11T10:30:33.437Z,9.92
2023-02-11T10:33:13.171Z,10.03
2023-02-11T10:35:42.510Z,10.15
2023-02-11T10:38:13.190Z,10.12
2023-02-11T10:40:41.420Z,10.24
2023-02-11T10:43:14.738Z,10.36
2023-02-11T10:45:47.818Z,10.47
2023-02-11T10:48:41.140Z,10.60
2023-02-11T10:51:18.676Z,10.65
2023-02-11T10:53:50.050Z,10.67
2023-02-11T10:56:26.662Z,10.76
2023-02-11T10:59:03.110Z,10.79
2023-02-11T11:01:43.086Z,10.83
2023-02-11T11:04:36.672Z,10.92
2023-02-11T11:07:20.003Z,11.03
2023-02-11T11:09:56.725Z,11.06
2023-02-11T11:12:42.187Z,11.12
2023-02-11T11:15:23.149Z,11.22
2023-02-11T11:17:52.838Z,11.19
2023-02-11T11:20:27.264Z,11.23
2023-02-11T11:23:15.836Z,11.21
2023-02-11T11:25:59.424Z,11.19
2023-02-11T11:28:31.186Z,11.13
2023-02-11T11:31:01.279Z,11.10
2023-02-11T11:33:32.049Z,11.25
2023-02-11T11:36:07.573Z,11.36
2023-02-11T11:38:44.000Z,11.25
2023-02-11T11:41:25.313Z,11.31
2023-02-11T11:44:03.014Z,11.27
2023-02-11T11:46:36.201Z,11.30
2023-02-11T11:49:27.704Z,11.15
2023-02-11T11:52:05.986Z,11.22
2023-02-11T11:54:35.728Z,11.19
2023-02-11T11:57:15.949Z,11.26
2023-02-11T11:59:44.243Z,11.29
2023-02-11T12:02:56.551Z,11.29
2023-02-11T12:05:29.057Z,11.28
2023-02-11T12:08:10.416Z,11.22
2023-02-11T12:11:06.662Z,11.27
2023-02-11T12:13:54.134Z,11.35
2023-02-11T12:16:34.702Z,11.40
2023-02-11T12:19:43.391Z,11.29
2023-02-11T12:22:13.770Z,11.32
2023-02-11T12:25:15.757Z,11.43
2023-02-11T12:27:55.687Z,11.32
2023-02-11T12:30:42.737Z,11.48
2023-02-11T12:33:28.957Z,11.53
2023-02-11T12:36:03.277Z,11.63
2023-02-11T12:38:53.506Z,11.71
2023-02-11T12:41:59.820Z,11.74
2023-02-11T12:44:43.138Z,11.73
2023-02-11T12:47:29.769Z,11.83
2023-02-11T12:50:14.739Z,11.69
2023-02-11T12:53:03.209Z,11.68
2023-02-11T12:55:37.813Z,11.78
2023-02-11T12:58:07.930Z,11.80
2023-02-11T13:00:46.214Z,11.75
2023-02-11T13:03:23.904Z,11.70
2023-02-11T13:05:56.410Z,11.78
2023-02-11T13:08:31.066Z,11.85
2023-02-11T13:11:03.901Z,11.92
2023-02-11T13:13:38.805Z,11.92
2023-02-11T13:16:15.975Z,11.87
2023-02-11T13:18:55.105Z,11.93
2023-02-11T13:21:58.276Z,11.84
2023-02-11T13:24:35.320Z,11.75
2023-02-11T13:27:16.422Z,11.81
2023-02-11T13:30:21.441Z,11.78
2023-02-11T13:33:07.953Z,11.66
2023-02-11T13:35:40.277Z,11.70
2023-02-11T13:38:21.555Z,11.69
2023-02-11T13:41:04.464Z,11.69
2023-02-11T13:43:35.466Z,11.70
2023-02-11T13:46:06.347Z,11.69
2023-02-11T13:48:37.782Z,11.71
2023-02-11T13:51:10.993Z,11.76
2023-02-11T13:53:53.871Z,11.74
2023-02-11T13:56:30.450Z,11.75
2023-02-11T13:59:02.166Z,11.71
2023-02-11T14:02:21.120Z,11.73
2023-02-11T14:05:41.264Z,11.56
2023-02-11T14:08:39.678Z,11.59
2023-02-11T14:11:47.908Z,11.63
2023-02-11T14:14:21.893Z,11.55
2023-02-11T14:17:33.547Z,11.61
2023-02-11T14:20:05.635Z,11.63
2023-02-11T14:22:48.959Z,11.70
2023-02-11T14:25:25.524Z,11.80
2023-02-11T14:27:58.459Z,11.84
2023-02-11T14:30:49.794Z,11.88
2023-02-11T14:34:06.339Z,11.87
2023-02-11T14:37:12.970Z,11.83
2023-02-11T14:40:04.338Z,11.88
2023-02-11T14:42:35.492Z,11.82
2023-02-11T14:45:31.075Z,11.80
2023-02-11T14:48:08.153Z,11.81
2023-02-11T14:50:44.781Z,11.80
2023-02-11T14:53:18.965Z,11.82
2023-02-11T14:55:50.502Z,11.86
2023-02-11T14:58:22.721Z,11.81
2023-02-11T15:00:56.134Z,11.82
2023-02-11T15:03:43.636Z,11.78
2023-02-11T15:06:19.860Z,11.71
2023-02-11T15:08:52.407Z,11.67
2023-02-11T15:11:23.802Z,11.67
2023-02-11T15:13:55.566Z,11.67
2023-02-11T15:16:26.389Z,11.66
2023-02-11T15:18:57.696Z,11.59
2023-02-11T15:21:29.858Z,11.53
2023-02-11T15:24:03.566Z,11.53
2023-02-11T15:26:32.015Z,11.52
2023-02-11T15:29:01.896Z,11.47
2023-02-11T15:31:32.473Z,11.44
2023-02-11T15:34:09.481Z,11.40
2023-02-11T15:36:38.778Z,11.39
2023-02-11T15:39:31.215Z,11.37
2023-02-11T15:42:19.233Z,11.39
2023-02-11T15:44:56.314Z,11.41
2023-02-11T15:47:25.121Z,11.35
2023-02-11T15:49:53.288Z,11.32
2023-02-11T15:52:27.908Z,11.30
2023-02-11T15:55:00.705Z,11.27
2023-02-11T15:57:29.799Z,11.17
2023-02-11T16:00:04.424Z,11.15
2023-02-11T16:02:45.170Z,11.01
2023-02-11T16:05:30.283Z,10.97
2023-02-11T16:07:59.340Z,10.96
2023-02-11T16:10:31.363Z,10.92
2023-02-11T16:13:19.238Z,10.89
2023-02-11T16:15:54.804Z,10.89
2023-02-11T16:18:38.300Z,10.83
2023-02-11T16:21:16.124Z,10.73
2023-02-11T16:23:51.202Z,10.72
2023-02-11T16:26:27.653Z,10.68
2023-02-11T16:29:12.908Z,10.69
2023-02-11T16:31:45.267Z,10.56
2023-02-11T16:34:20.081Z,10.55
2023-02-11T16:36:48.665Z,10.57
2023-02-11T16:39:18.440Z,10.57
2023-02-11T16:41:46.676Z,10.53
2023-02-11T16:44:14.805Z,10.52
2023-02-11T16:46:44.860Z,10.51
2023-02-11T16:49:19.309Z,10.49
2023-02-11T16:51:51.410Z,10.49
2023-02-11T16:54:20.829Z,10.49
2023-02-11T16:56:49.382Z,10.41
2023-02-11T16:59:17.517Z,10.39
2023-02-11T17:01:49.067Z,10.34
2023-02-11T17:04:21.453Z,10.36
2023-02-11T17:06:49.598Z,10.31
2023-02-11T17:09:21.361Z,10.29
2023-02-11T17:11:50.091Z,10.31
2023-02-11T17:14:19.124Z,10.21
2023-02-11T17:16:49.495Z,10.21
2023-02-11T17:19:21.067Z,10.17
2023-02-11T17:21:52.765Z,10.19
2023-02-11T17:24:22.298Z,10.23
2023-02-11T17:26:51.522Z,10.24
2023-02-11T17:29:24.453Z,10.24
2023-02-11T17:31:54.567Z,10.20
2023-02-11T17:34:24.002Z,10.15
2023-02-11T17:36:52.787Z,10.16
2023-02-11T17:39:21.177Z,10.14
2023-02-11T17:41:49.445Z,10.15
2023-02-11T17:44:17.772Z,10.14
2023-02-11T17:46:45.846Z,10.13
2023-02-11T17:49:15.785Z,10.08
2023-02-11T17:51:44.066Z,10.09
2023-02-11T17:54:15.232Z,10.11
2023-02-11T17:56:43.614Z,10.11
2023-02-11T17:59:13.786Z,10.08
2023-02-11T18:01:43.870Z,10.05
2023-02-11T18:04:17.763Z,10.04
2023-02-11T18:06:46.987Z,10.04
2023-02-11T18:09:15.210Z,9.99
2023-02-11T18:11:43.291Z,9.99
2023-02-11T18:14:12.076Z,9.96
2023-02-11T18:16:43.180Z,9.95
2023-02-11T18:19:12.122Z,9.93
2023-02-11T18:21:41.607Z,9.91
2023-02-11T18:24:10.617Z,9.93
2023-02-11T18:26:38.820Z,9.89
2023-02-11T18:29:07.328Z,9.89
2023-02-11T18:31:36.504Z,9.89
2023-02-11T18:34:07.547Z,9.90
2023-02-11T18:36:36.566Z,9.79
2023-02-11T18:39:06.537Z,9.72
2023-02-11T18:41:34.863Z,9.69
2023-02-11T18:44:04.608Z,9.70
2023-02-11T18:46:32.732Z,9.68
2023-02-11T18:49:01.064Z,9.70
2023-02-11T18:51:32.376Z,9.69
2023-02-11T18:54:01.298Z,9.67
2023-02-11T18:56:30.928Z,9.69
2023-02-11T18:59:02.215Z,9.72
2023-02-11T19:01:33.089Z,9.75
2023-02-11T19:04:05.402Z,9.73
2023-02-11T19:06:36.620Z,9.73
2023-02-11T19:09:11.186Z,9.81
2023-02-11T19:11:50.873Z,9.72
2023-02-11T19:14:23.550Z,9.76
2023-02-11T19:16:53.929Z,9.76
2023-02-11T19:19:24.657Z,9.77
2023-02-11T19:21:52.831Z,9.73
2023-02-11T19:24:21.551Z,9.78
2023-02-11T19:26:53.609Z,9.78
2023-02-11T19:29:21.751Z,9.78
2023-02-11T19:31:50.039Z,9.73
2023-02-11T19:34:21.268Z,9.71
2023-02-11T19:36:50.242Z,9.69
2023-02-11T19:39:18.620Z,9.68
2023-02-11T19:41:46.800Z,9.65
2023-02-11T19:44:16.680Z,9.58
2023-02-11T19:46:46.053Z,9.54
2023-02-11T19:49:17.658Z,9.57
2023-02-11T19:51:46.262Z,9.74
2023-02-11T19:54:14.755Z,10.09
2023-02-11T19:56:42.974Z,10.68
2023-02-11T19:59:11.274Z,10.91
2023-02-11T20:01:41.567Z,10.88
2023-02-11T20:04:09.834Z,10.74
2023-02-11T20:06:38.045Z,10.57
2023-02-11T20:09:10.044Z,10.42
2023-02-11T20:11:39.251Z,10.31
2023-02-11T20:14:08.648Z,10.23
2023-02-11T20:16:48.208Z,10.08
2023-02-11T20:19:23.043Z,10.02
2023-02-11T20:21:56.000Z,9.96
2023-02-11T20:24:26.791Z,9.96
2023-02-11T20:26:56.322Z,9.86
2023-02-11T20:29:26.005Z,9.81
2023-02-11T20:31:54.505Z,9.77
2023-02-11T20:34:25.095Z,9.76
2023-02-11T20:36:54.132Z,9.68
2023-02-11T20:39:23.576Z,9.61
2023-02-11T20:41:53.737Z,9.61
2023-02-11T20:44:22.800Z,9.54
2023-02-11T20:46:52.064Z,9.51
2023-02-11T20:49:26.275Z,9.48
2023-02-11T20:51:54.690Z,9.47
2023-02-11T20:54:25.212Z,9.51
2023-02-11T20:56:55.392Z,9.48
2023-02-11T20:59:24.066Z,9.41
2023-02-11T21:01:55.385Z,9.41
2023-02-11T21:04:28.430Z,9.41
2023-02-11T21:06:58.780Z,9.31
2023-02-11T21:09:30.027Z,9.27
2023-02-11T21:11:58.172Z,9.28
2023-02-11T21:14:29.014Z,9.31
2023-02-11T21:16:57.540Z,9.34
2023-02-11T21:19:30.314Z,9.27
2023-02-11T21:22:00.719Z,9.23
2023-02-11T21:24:31.764Z,9.23
2023-02-11T21:27:00.212Z,9.18
2023-02-11T21:29:30.273Z,9.27
2023-02-11T21:31:58.808Z,9.18
2023-02-11T21:34:28.432Z,9.15
2023-02-11T21:36:57.200Z,9.14
2023-02-11T21:39:25.356Z,9.16
2023-02-11T21:41:55.948Z,9.10
2023-02-11T21:44:24.056Z,9.09
2023-02-11T21:46:53.418Z,9.07
2023-02-11T21:49:21.588Z,9.04
2023-02-11T21:51:50.993Z,9.11
2023-02-11T21:54:20.101Z,9.09
2023-02-11T21:56:51.680Z,8.92
2023-02-11T21:59:19.802Z,9.01
2023-02-11T22:01:47.900Z,9.11
2023-02-11T22:04:17.124Z,9.04
2023-02-11T22:06:45.245Z,9.01
2023-02-11T22:09:14.793Z,8.96
2023-02-11T22:11:42.881Z,8.95
2023-02-11T22:14:11.059Z,8.96
2023-02-11T22:16:39.173Z,9.07
2023-02-11T22:19:07.591Z,9.06
2023-02-11T22:21:35.768Z,9.04
2023-02-11T22:24:03.977Z,9.05
2023-02-11T22:26:33.621Z,9.05
2023-02-11T22:29:02.059Z,9.00
2023-02-11T22:31:33.066Z,8.91
2023-02-11T22:34:02.074Z,8.92
2023-02-11T22:36:32.493Z,9.01
2023-02-11T22:39:02.892Z,9.04
2023-02-11T22:41:32.882Z,8.99
2023-02-11T22:44:01.526Z,8.98
2023-02-11T22:46:29.686Z,8.97
2023-02-11T22:48:58.183Z,9.00
2023-02-11T22:51:29.823Z,8.98
2023-02-11T22:54:00.460Z,8.95
2023-02-11T22:56:30.045Z,8.95
2023-02-11T22:59:00.859Z,9.00
2023-02-11T23:01:30.935Z,8.98
2023-02-11T23:04:01.856Z,9.05
2023-02-11T23:06:30.014Z,9.08
2023-02-11T23:08:58.181Z,9.01
2023-02-11T23:11:30.651Z,8.92
2023-02-11T23:14:01.764Z,8.89
2023-02-11T23:16:33.274Z,8.86
2023-02-11T23:19:03.230Z,8.81
2023-02-11T23:21:34.325Z,8.76
2023-02-11T23:24:05.923Z,8.75
2023-02-11T23:26:38.357Z,8.74
2023-02-11T23:29:08.674Z,8.80
2023-02-11T23:31:43.914Z,8.76
2023-02-11T23:34:15.020Z,8.76
2023-02-11T23:36:44.508Z,8.75
2023-02-11T23:39:15.724Z,8.82
2023-02-11T23:41:43.860Z,8.79
2023-02-11T23:44:13.759Z,8.76
2023-02-11T23:46:41.848Z,8.71
2023-02-11T23:49:34.340Z,8.69
2023-02-11T23:52:08.228Z,8.71
2023-02-11T23:54:36.325Z,8.69
2023-02-11T23:57:04.476Z,8.67
2023-02-11T23:59:33.920Z,8.72
